createdAt,value
2023-02-27T00:01:12.518Z,95487.69
2023-02-27T00:03:46.468Z,95478.16
2023-02-27T00:06:18.179Z,95482.53
2023-02-27T00:08:49.323Z,95480.78
2023-02-27T00:11:20.078Z,95477.66
2023-02-27T00:13:51.348Z,95485.16
2023-02-27T00:16:22.588Z,95482.34
2023-02-27T00:19:01.489Z,95479.59
2023-02-27T00:21:37.661Z,95485.38
2023-02-27T00:24:09.161Z,95481.88
2023-02-27T00:26:39.628Z,95486.75
2023-02-27T00:29:11.243Z,95486.31
2023-02-27T00:31:41.389Z,95494.38
2023-02-27T00:34:15.769Z,95487.06
2023-02-27T00:36:46.185Z,95491.66
2023-02-27T00:39:16.288Z,95491.78
2023-02-27T00:41:46.453Z,95494.59
2023-02-27T00:44:16.576Z,95489.19
2023-02-27T00:46:49.871Z,95494.09
2023-02-27T00:49:22.900Z,95485.44
2023-02-27T00:51:52.744Z,95493.69
2023-02-27T00:54:22.690Z,95493.13
2023-02-27T00:56:53.408Z,95496.94
2023-02-27T00:59:23.732Z,95489.75
2023-02-27T01:01:55.745Z,95492.88
2023-02-27T01:04:28.711Z,95486.81
2023-02-27T01:06:59.264Z,95488.88
2023-02-27T01:09:31.448Z,95488.19
2023-02-27T01:12:01.671Z,95482.34
2023-02-27T01:14:34.136Z,95483.56
2023-02-27T01:17:04.424Z,95494.41
2023-02-27T01:19:39.878Z,95493.03
2023-02-27T01:22:13.083Z,95484.66
2023-02-27T01:24:44.897Z,95493.19
2023-02-27T01:27:16.947Z,95483.84
2023-02-27T01:29:46.965Z,95493.16
2023-02-27T01:32:17.126Z,95491.09
2023-02-27T01:34:49.845Z,95494.50
2023-02-27T01:37:19.869Z,95494.13
2023-02-27T01:39:49.806Z,95491.28
2023-02-27T01:42:24.911Z,95500.44
2023-02-27T01:45:32.536Z,95506.28
2023-02-27T01:48:16.549Z,95496.00
2023-02-27T01:50:53.713Z,95503.03
2023-02-27T01:53:26.057Z,95501.16
2023-02-27T01:56:01.196Z,95506.78
2023-02-27T01:58:32.194Z,95503.16
2023-02-27T02:01:02.042Z,95500.88
2023-02-27T02:03:45.496Z,95500.03
2023-02-27T02:06:17.881Z,95498.16
2023-02-27T02:08:51.977Z,95500.38
2023-02-27T02:11:24.966Z,95502.66
2023-02-27T02:14:01.517Z,95500.88
2023-02-27T02:16:52.294Z,95503.88
2023-02-27T02:19:50.894Z,95505.91
2023-02-27T02:23:02.179Z,95498.75
2023-02-27T02:26:09.489Z,95499.84
2023-02-27T02:29:18.407Z,95501.19
2023-02-27T02:32:24.511Z,95494.56
2023-02-27T02:35:21.634Z,95496.97
2023-02-27T02:38:22.341Z,95493.19
2023-02-27T02:41:03.443Z,95493.06
2023-02-27T02:43:47.587Z,95488.88
2023-02-27T02:46:34.169Z,95490.78
2023-02-27T02:49:17.481Z,95484.13
2023-02-27T02:51:56.601Z,95487.91
2023-02-27T02:54:41.342Z,95487.81
2023-02-27T02:57:20.316Z,95492.94
2023-02-27T02:59:59.974Z,95489.00
2023-02-27T03:02:36.813Z,95490.09
2023-02-27T03:05:12.332Z,95496.44
2023-02-27T03:07:49.595Z,95495.94
2023-02-27T03:10:29.385Z,95497.94
2023-02-27T03:13:05.602Z,95502.25
2023-02-27T03:15:43.563Z,95496.31
2023-02-27T03:18:22.075Z,95504.16
2023-02-27T03:20:58.200Z,95502.28
2023-02-27T03:23:35.509Z,95493.88
2023-02-27T03:26:11.748Z,95497.94
2023-02-27T03:28:51.823Z,95497.94
2023-02-27T03:31:33.978Z,95495.50
2023-02-27T03:34:15.885Z,95504.03
2023-02-27T03:36:57.550Z,95502.28
2023-02-27T03:39:40.513Z,95500.25
2023-02-27T03:42:20.576Z,95506.19
2023-02-27T03:45:21.824Z,95505.13
2023-02-27T03:47:54.475Z,95510.66
2023-02-27T03:50:25.456Z,95516.72
2023-02-27T03:52:56.614Z,95517.69
2023-02-27T03:55:33.472Z,95513.59
2023-02-27T03:58:08.509Z,95517.66
2023-02-27T04:00:38.553Z,95521.31
2023-02-27T04:03:09.427Z,95518.75
2023-02-27T04:05:39.757Z,95514.94
2023-02-27T04:08:32.097Z,95516.97
2023-02-27T04:11:30.456Z,95511.84
2023-02-27T04:14:23.390Z,95517.50
2023-02-27T04:17:35.526Z,95514.13
2023-02-27T04:20:20.837Z,95519.81
2023-02-27T04:22:56.148Z,95526.88
2023-02-27T04:25:42.757Z,95519.53
2023-02-27T04:28:21.667Z,95523.50
2023-02-27T04:31:07.048Z,95527.13
2023-02-27T04:33:48.011Z,95524.69
2023-02-27T04:36:27.562Z,95519.13
2023-02-27T04:39:08.733Z,95519.81
2023-02-27T04:41:47.768Z,95518.06
2023-02-27T04:44:23.936Z,95520.50
2023-02-27T04:47:00.591Z,95513.59
2023-02-27T04:49:36.552Z,95513.44
2023-02-27T04:52:14.053Z,95521.72
2023-02-27T04:54:50.249Z,95517.13
2023-02-27T04:57:28.166Z,95517.78
2023-02-27T05:00:01.906Z,95518.88
2023-02-27T05:02:40.249Z,95516.44
2023-02-27T05:05:16.472Z,95514.84
2023-02-27T05:07:53.447Z,95514.69
2023-02-27T05:10:32.605Z,95515.91
2023-02-27T05:13:11.076Z,95519.53
2023-02-27T05:15:48.358Z,95522.25
2023-02-27T05:18:24.451Z,95520.25
2023-02-27T05:21:04.290Z,95518.34
2023-02-27T05:23:47.030Z,95521.16
2023-02-27T05:26:23.308Z,95520.91
2023-02-27T05:29:02.608Z,95525.25
2023-02-27T05:31:45.612Z,95521.72
2023-02-27T05:34:24.881Z,95517.25
2023-02-27T05:37:03.139Z,95521.03
2023-02-27T05:39:38.331Z,95516.06
2023-02-27T05:42:16.748Z,95529.16
2023-02-27T05:44:53.598Z,95525.09
2023-02-27T05:47:28.819Z,95529.00
2023-02-27T05:50:10.063Z,95524.97
2023-02-27T05:52:43.665Z,95526.16
2023-02-27T05:55:22.162Z,95532.28
2023-02-27T05:58:00.096Z,95533.63
2023-02-27T06:00:38.260Z,95542.53
2023-02-27T06:03:08.953Z,95527.41
2023-02-27T06:05:47.061Z,95527.00
2023-02-27T06:08:16.922Z,95526.16
2023-02-27T06:10:47.504Z,95528.47
2023-02-27T06:13:18.107Z,95533.75
2023-02-27T06:15:52.543Z,95540.25
2023-02-27T06:18:23.401Z,95545.22
2023-02-27T06:20:57.891Z,95544.56
2023-02-27T06:23:28.031Z,95548.47
2023-02-27T06:25:58.225Z,95553.88
2023-02-27T06:28:28.398Z,95551.03
2023-02-27T06:30:59.925Z,95555.22
2023-02-27T06:33:29.825Z,95553.19
2023-02-27T06:36:02.587Z,95555.63
2023-02-27T06:38:34.269Z,95556.59
2023-02-27T06:41:04.491Z,95555.91
2023-02-27T06:43:38.726Z,95560.50
2023-02-27T06:46:12.767Z,95556.28
2023-02-27T06:48:42.839Z,95556.97
2023-02-27T06:51:16.230Z,95571.03
2023-02-27T06:53:47.599Z,95567.38
2023-02-27T06:56:19.814Z,95563.19
2023-02-27T06:58:49.960Z,95569.41
2023-02-27T07:01:20.084Z,95564.53
2023-02-27T07:03:50.293Z,95565.03
2023-02-27T07:07:33.328Z,95559.75
2023-02-27T07:09:13.061Z,95554.59
2023-02-27T07:11:46.346Z,95563.94
2023-02-27T07:14:16.771Z,95558.13
2023-02-27T07:16:48.236Z,95561.56
2023-02-27T07:19:18.654Z,95573.72
2023-02-27T07:21:53.697Z,95563.41
2023-02-27T07:24:25.603Z,95570.47
2023-02-27T07:26:56.530Z,95572.34
2023-02-27T07:29:27.990Z,95570.00
2023-02-27T07:32:04.001Z,95577.63
2023-02-27T07:34:34.814Z,95573.31
2023-02-27T07:37:09.712Z,95587.72
2023-02-27T07:39:40.900Z,95576.63
2023-02-27T07:42:10.856Z,95582.88
2023-02-27T07:44:43.292Z,95589.31
2023-02-27T07:47:14.416Z,95590.38
2023-02-27T07:49:44.328Z,95576.09
2023-02-27T07:52:16.787Z,95576.38
2023-02-27T07:54:47.160Z,95583.59
2023-02-27T07:57:18.510Z,95584.91
2023-02-27T07:59:48.625Z,95585.94
2023-02-27T08:02:20.977Z,95593.16
2023-02-27T08:04:52.796Z,95587.31
2023-02-27T08:07:26.725Z,95594.31
2023-02-27T08:09:57.531Z,95590.69
2023-02-27T08:12:27.450Z,95588.50
2023-02-27T08:14:58.667Z,95581.06
2023-02-27T08:17:28.732Z,95593.75
2023-02-27T08:19:59.393Z,95590.38
2023-02-27T08:22:32.560Z,95591.97
2023-02-27T08:25:03.341Z,95599.88
2023-02-27T08:27:34.157Z,95596.28
2023-02-27T08:30:05.317Z,95596.63
2023-02-27T08:32:37.353Z,95595.38
2023-02-27T08:35:09.172Z,95593.94
2023-02-27T08:37:44.278Z,95598.41
2023-02-27T08:40:15.364Z,95601.34
2023-02-27T08:42:46.349Z,95604.56
2023-02-27T08:45:19.372Z,95609.19
2023-02-27T08:47:49.526Z,95608.75
2023-02-27T08:50:23.076Z,95610.16
2023-02-27T08:52:55.511Z,95613.28
2023-02-27T08:55:29.244Z,95617.47
2023-02-27T08:58:02.719Z,95612.41
2023-02-27T09:00:35.129Z,95611.75
2023-02-27T09:03:05.458Z,95616.59
2023-02-27T09:05:37.678Z,95614.50
2023-02-27T09:08:11.630Z,95617.03
2023-02-27T09:10:42.300Z,95623.41
2023-02-27T09:13:12.933Z,95620.91
2023-02-27T09:15:42.865Z,95622.34
2023-02-27T09:18:12.936Z,95629.06
2023-02-27T09:20:42.878Z,95630.09
2023-02-27T09:23:15.313Z,95624.16
2023-02-27T09:25:45.310Z,95634.75
2023-02-27T09:28:15.404Z,95619.66
2023-02-27T09:30:47.699Z,95623.47
2023-02-27T09:33:18.009Z,95629.34
2023-02-27T09:35:47.954Z,95630.88
2023-02-27T09:38:20.358Z,95630.47
2023-02-27T09:40:55.247Z,95634.28
2023-02-27T09:43:35.005Z,95633.69
2023-02-27T09:46:08.060Z,95644.09
2023-02-27T09:48:47.627Z,95661.81
2023-02-27T09:51:20.174Z,95657.47
2023-02-27T09:53:55.619Z,95657.59
2023-02-27T09:56:30.468Z,95670.03
2023-02-27T09:59:14.911Z,95664.75
2023-02-27T10:01:50.863Z,95676.78
2023-02-27T10:04:34.757Z,95679.47
2023-02-27T10:07:16.712Z,95682.16
2023-02-27T10:10:04.832Z,95688.53
2023-02-27T10:12:55.119Z,95700.47
2023-02-27T10:15:31.773Z,95695.75
2023-02-27T10:18:23.573Z,95692.69
2023-02-27T10:21:00.480Z,95698.06
2023-02-27T10:23:38.767Z,95696.31
2023-02-27T10:26:26.490Z,95708.13
2023-02-27T10:28:57.393Z,95706.84
2023-02-27T10:31:34.260Z,95702.53
2023-02-27T10:34:05.321Z,95701.94
2023-02-27T10:36:36.776Z,95707.50
2023-02-27T10:39:16.945Z,95704.88
2023-02-27T10:41:50.306Z,95704.34
2023-02-27T10:44:21.514Z,95705.16
2023-02-27T10:46:52.252Z,95706.22
2023-02-27T10:49:24.631Z,95708.63
2023-02-27T10:52:10.818Z,95698.56
2023-02-27T10:54:43.270Z,95702.28
2023-02-27T10:57:44.939Z,95707.66
2023-02-27T11:00:31.274Z,95711.66
2023-02-27T11:03:02.290Z,95701.97
2023-02-27T11:05:36.040Z,95708.72
2023-02-27T11:08:23.777Z,95708.00
2023-02-27T11:11:04.281Z,95697.84
2023-02-27T11:13:40.330Z,95694.28
2023-02-27T11:16:14.635Z,95705.72
2023-02-27T11:18:47.904Z,95700.25
2023-02-27T11:21:25.442Z,95706.03
2023-02-27T11:24:03.362Z,95697.38
2023-02-27T11:26:37.850Z,95699.13
2023-02-27T11:29:18.414Z,95694.19
2023-02-27T11:31:53.968Z,95705.59
2023-02-27T11:34:29.692Z,95700.97
2023-02-27T11:37:04.056Z,95685.00
2023-02-27T11:39:39.222Z,95687.31
2023-02-27T11:42:26.190Z,95697.84
2023-02-27T11:45:03.698Z,95688.19
2023-02-27T11:47:37.810Z,95694.72
2023-02-27T11:50:44.021Z,95695.38
2023-02-27T11:53:40.783Z,95685.53
2023-02-27T11:56:16.000Z,95684.22
2023-02-27T11:58:53.565Z,95690.19
2023-02-27T12:01:32.770Z,95682.78
2023-02-27T12:04:09.389Z,95697.28
2023-02-27T12:06:45.453Z,95675.63
2023-02-27T12:09:33.215Z,95686.47
2023-02-27T12:12:10.426Z,95678.59
2023-02-27T12:14:50.156Z,95676.25
2023-02-27T12:17:32.356Z,95683.31
2023-02-27T12:20:24.804Z,95679.63
2023-02-27T12:22:57.707Z,95671.09
2023-02-27T12:25:41.113Z,95679.19
2023-02-27T12:28:26.899Z,95678.78
2023-02-27T12:31:10.090Z,95683.59
2023-02-27T12:33:52.648Z,95686.19
2023-02-27T12:36:22.735Z,95691.97
2023-02-27T12:38:52.787Z,95688.94
2023-02-27T12:41:39.563Z,95688.28
2023-02-27T12:44:31.828Z,95687.19
2023-02-27T12:47:18.488Z,95682.53
2023-02-27T12:50:01.747Z,95694.63
2023-02-27T12:52:44.056Z,95693.34
2023-02-27T12:55:20.735Z,95698.50
2023-02-27T12:58:15.266Z,95704.47
2023-02-27T13:00:50.987Z,95701.53
2023-02-27T13:03:28.625Z,95696.53
2023-02-27T13:06:19.963Z,95702.75
2023-02-27T13:09:12.424Z,95699.94
2023-02-27T13:11:55.914Z,95697.25
2023-02-27T13:14:40.284Z,95696.63
2023-02-27T13:17:21.057Z,95688.69
2023-02-27T13:19:55.772Z,95715.22
2023-02-27T13:22:40.842Z,95692.94
2023-02-27T13:25:18.317Z,95686.97
2023-02-27T13:27:54.967Z,95687.19
2023-02-27T13:30:30.903Z,95693.75
2023-02-27T13:33:13.606Z,95688.25
2023-02-27T13:35:52.226Z,95683.47
2023-02-27T13:38:44.225Z,95684.44
2023-02-27T13:41:41.710Z,95679.63
2023-02-27T13:44:51.392Z,95679.03
2023-02-27T13:47:53.025Z,95677.00
2023-02-27T13:50:55.588Z,95691.19
2023-02-27T13:53:26.111Z,95683.56
2023-02-27T13:56:25.122Z,95681.34
2023-02-27T13:58:57.881Z,95683.78
2023-02-27T14:01:33.434Z,95685.75
2023-02-27T14:04:10.490Z,95691.97
2023-02-27T14:06:51.749Z,95681.81
2023-02-27T14:09:26.345Z,95682.88
2023-02-27T14:12:05.173Z,95696.38
2023-02-27T14:14:44.510Z,95691.09
2023-02-27T14:17:16.125Z,95698.31
2023-02-27T14:20:03.294Z,95695.75
2023-02-27T14:22:46.241Z,95700.91
2023-02-27T14:25:29.669Z,95698.06
2023-02-27T14:28:05.056Z,95691.00
2023-02-27T14:30:45.626Z,95692.91
2023-02-27T14:33:39.165Z,95697.25
2023-02-27T14:36:17.357Z,95693.19
2023-02-27T14:38:47.836Z,95693.16
2023-02-27T14:41:39.022Z,95701.44
2023-02-27T14:44:22.043Z,95700.25
2023-02-27T14:46:55.556Z,95716.84
2023-02-27T14:49:31.995Z,95684.69
2023-02-27T14:52:16.276Z,95693.56
2023-02-27T14:54:46.801Z,95697.38
2023-02-27T14:57:30.157Z,95702.44
2023-02-27T15:00:05.179Z,95706.91
2023-02-27T15:02:39.400Z,95698.09
2023-02-27T15:05:22.449Z,95700.16
2023-02-27T15:07:52.729Z,95705.34
2023-02-27T15:10:31.016Z,95702.34
2023-02-27T15:13:02.872Z,95702.63
2023-02-27T15:15:37.770Z,95700.25
2023-02-27T15:18:16.631Z,95705.31
2023-02-27T15:20:46.935Z,95698.31
2023-02-27T15:23:27.630Z,95708.84
2023-02-27T15:25:59.959Z,95712.09
2023-02-27T15:28:38.901Z,95709.91
2023-02-27T15:31:21.181Z,95715.88
2023-02-27T15:33:53.324Z,95713.78
2023-02-27T15:36:28.469Z,95716.25
2023-02-27T15:39:18.712Z,95716.41
2023-02-27T15:41:52.640Z,95732.53
2023-02-27T15:44:29.151Z,95717.91
2023-02-27T15:47:02.804Z,95728.22
2023-02-27T15:49:33.136Z,95739.88
2023-02-27T15:52:07.463Z,95728.91
2023-02-27T15:54:39.839Z,95738.81
2023-02-27T15:57:11.425Z,95733.41
2023-02-27T15:59:46.890Z,95735.69
2023-02-27T16:02:27.433Z,95740.13
2023-02-27T16:04:59.100Z,95735.53
2023-02-27T16:07:33.287Z,95728.25
2023-02-27T16:10:19.809Z,95741.09
2023-02-27T16:12:51.389Z,95745.66
2023-02-27T16:15:29.149Z,95748.91
2023-02-27T16:18:08.837Z,95748.41
2023-02-27T16:20:45.404Z,95749.31
2023-02-27T16:23:22.876Z,95755.84
2023-02-27T16:26:21.328Z,95755.59
2023-02-27T16:28:55.611Z,95756.69
2023-02-27T16:31:31.084Z,95769.56
2023-02-27T16:34:16.566Z,95768.16
2023-02-27T16:36:56.737Z,95762.75
2023-02-27T16:39:27.659Z,95762.38
2023-02-27T16:42:00.059Z,95762.38
2023-02-27T16:44:30.120Z,95774.41
2023-02-27T16:47:02.263Z,95774.13
2023-02-27T16:49:35.006Z,95778.34
2023-02-27T16:52:06.084Z,95781.84
2023-02-27T16:54:37.972Z,95789.88
2023-02-27T16:57:18.252Z,95785.69
2023-02-27T16:59:48.386Z,95784.47
2023-02-27T17:02:19.837Z,95799.22
2023-02-27T17:04:56.055Z,95790.41
2023-02-27T17:07:27.631Z,95795.97
2023-02-27T17:09:57.834Z,95804.63
2023-02-27T17:12:28.086Z,95809.50
2023-02-27T17:14:58.143Z,95804.63
2023-02-27T17:17:28.866Z,95809.91
2023-02-27T17:20:03.359Z,95811.28
2023-02-27T17:22:33.284Z,95806.94
2023-02-27T17:25:03.949Z,95810.06
2023-02-27T17:27:34.114Z,95817.09
2023-02-27T17:30:04.449Z,95821.81
2023-02-27T17:32:35.003Z,95831.44
2023-02-27T17:35:08.993Z,95824.91
2023-02-27T17:37:38.823Z,95837.38
2023-02-27T17:40:12.299Z,95833.72
2023-02-27T17:42:42.757Z,95834.00
2023-02-27T17:45:14.586Z,95828.03
2023-02-27T17:47:44.452Z,95829.78
2023-02-27T17:50:17.757Z,95836.00
2023-02-27T17:52:47.859Z,95853.31
2023-02-27T17:55:20.787Z,95857.78
2023-02-27T17:57:50.631Z,95856.28
2023-02-27T18:00:22.685Z,95856.53
2023-02-27T18:02:52.671Z,95858.16
2023-02-27T18:05:25.158Z,95849.78
2023-02-27T18:07:55.670Z,95853.53
2023-02-27T18:10:25.491Z,95858.81
2023-02-27T18:12:55.746Z,95854.78
2023-02-27T18:15:25.599Z,95865.47
2023-02-27T18:17:55.756Z,95866.66
2023-02-27T18:20:28.642Z,95863.28
2023-02-27T18:22:58.989Z,95865.13
2023-02-27T18:25:28.957Z,95859.47
2023-02-27T18:28:01.716Z,95863.78
2023-02-27T18:30:33.638Z,95863.78
2023-02-27T18:33:04.241Z,95862.69
2023-02-27T18:35:36.835Z,95858.22
2023-02-27T18:38:07.531Z,95854.69
2023-02-27T18:40:37.699Z,95866.56
2023-02-27T18:43:08.242Z,95862.84
2023-02-27T18:45:39.075Z,95871.34
2023-02-27T18:48:10.401Z,95873.56
2023-02-27T18:50:42.914Z,95875.84
2023-02-27T18:53:13.381Z,95884.34
2023-02-27T18:55:44.529Z,95876.19
2023-02-27T18:58:14.879Z,95888.19
2023-02-27T19:00:45.260Z,95887.47
2023-02-27T19:03:15.486Z,95872.97
2023-02-27T19:05:48.463Z,95919.34
2023-02-27T19:08:19.708Z,95881.59
2023-02-27T19:10:50.055Z,95883.06
2023-02-27T19:13:20.893Z,95883.66
2023-02-27T19:15:51.958Z,95893.91
2023-02-27T19:18:21.885Z,95892.41
2023-02-27T19:20:56.418Z,95893.47
2023-02-27T19:23:27.382Z,95892.63
2023-02-27T19:26:01.290Z,95882.78
2023-02-27T19:28:34.394Z,95888.97
2023-02-27T19:31:09.752Z,95894.97
2023-02-27T19:33:40.679Z,95892.50
2023-02-27T19:36:16.376Z,95886.53
2023-02-27T19:38:46.780Z,95882.41
2023-02-27T19:41:19.381Z,95879.16
2023-02-27T19:43:50.573Z,95873.00
2023-02-27T19:46:24.006Z,95881.81
2023-02-27T19:48:54.924Z,95882.47
2023-02-27T19:51:28.399Z,95884.94
2023-02-27T19:53:59.678Z,95882.72
2023-02-27T19:56:31.925Z,95884.09
2023-02-27T19:59:04.196Z,95875.53
2023-02-27T20:01:39.031Z,95882.44
2023-02-27T20:04:11.247Z,95887.03
2023-02-27T20:06:45.277Z,95883.13
2023-02-27T20:09:21.492Z,95890.38
2023-02-27T20:11:57.127Z,95884.09
2023-02-27T20:14:28.014Z,95883.88
2023-02-27T20:16:58.741Z,95885.53
2023-02-27T20:19:30.343Z,95888.59
2023-02-27T20:22:04.223Z,95874.75
2023-02-27T20:24:34.596Z,95877.13
2023-02-27T20:27:04.572Z,95881.06
2023-02-27T20:29:37.247Z,95876.31
2023-02-27T20:32:09.338Z,95877.00
2023-02-27T20:34:39.575Z,95874.81
2023-02-27T20:37:12.699Z,95872.00
2023-02-27T20:39:43.440Z,95876.16
2023-02-27T20:42:14.156Z,95872.69
2023-02-27T20:44:45.760Z,95863.75
2023-02-27T20:47:15.858Z,95862.59
2023-02-27T20:49:46.135Z,95862.97
2023-02-27T20:52:19.468Z,95856.22
2023-02-27T20:54:49.379Z,95853.38
2023-02-27T20:57:19.793Z,95852.06
2023-02-27T20:59:50.541Z,95850.13
2023-02-27T21:02:20.367Z,95851.63
2023-02-27T21:04:53.674Z,95857.09
2023-02-27T21:07:27.254Z,95857.28
2023-02-27T21:09:57.514Z,95850.47
2023-02-27T21:12:28.057Z,95853.16
2023-02-27T21:14:59.144Z,95853.94
2023-02-27T21:17:30.199Z,95846.19
2023-02-27T21:20:00.190Z,95851.44
2023-02-27T21:22:33.150Z,95848.44
2023-02-27T21:25:05.963Z,95848.06
2023-02-27T21:27:35.955Z,95843.44
2023-02-27T21:30:06.183Z,95853.03
2023-02-27T21:32:36.792Z,95849.91
2023-02-27T21:35:07.253Z,95851.56
2023-02-27T21:37:47.282Z,95850.78
2023-02-27T21:40:17.619Z,95846.97
2023-02-27T21:42:48.452Z,95842.25
2023-02-27T21:45:19.891Z,95839.63
2023-02-27T21:47:50.865Z,95839.25
2023-02-27T21:50:23.102Z,95833.56
2023-02-27T21:52:55.629Z,95823.47
2023-02-27T21:55:26.073Z,95832.50
2023-02-27T21:57:56.753Z,95824.22
2023-02-27T22:00:29.443Z,95831.03
2023-02-27T22:03:00.099Z,95828.34
2023-02-27T22:05:30.084Z,95833.91
2023-02-27T22:08:03.263Z,95834.69
2023-02-27T22:10:36.145Z,95826.78
2023-02-27T22:13:06.343Z,95826.41
2023-02-27T22:15:38.619Z,95824.13
2023-02-27T22:18:08.912Z,95828.03
2023-02-27T22:20:41.539Z,95826.41
2023-02-27T22:23:14.292Z,95821.03
2023-02-27T22:25:44.138Z,95819.97
2023-02-27T22:28:14.425Z,95809.03
2023-02-27T22:30:46.012Z,95803.97
2023-02-27T22:33:17.124Z,95809.81
2023-02-27T22:35:49.509Z,95810.06
2023-02-27T22:38:22.878Z,95804.22
2023-02-27T22:40:52.818Z,95801.41
2023-02-27T22:43:23.266Z,95797.66
2023-02-27T22:45:53.356Z,95802.38
2023-02-27T22:48:23.632Z,95783.44
2023-02-27T22:51:00.057Z,95792.38
2023-02-27T22:53:33.224Z,95785.63
2023-02-27T22:56:05.736Z,95787.22
2023-02-27T22:58:37.815Z,95776.16
2023-02-27T23:01:12.410Z,95773.88
2023-02-27T23:03:44.242Z,95770.06
2023-02-27T23:06:21.895Z,95769.25
2023-02-27T23:08:55.261Z,95777.09
2023-02-27T23:11:25.664Z,95776.53
2023-02-27T23:13:56.313Z,95774.13
2023-02-27T23:16:26.793Z,95779.22
2023-02-27T23:18:58.592Z,95780.84
2023-02-27T23:21:34.410Z,95778.97
2023-02-27T23:24:09.669Z,95786.78
2023-02-27T23:26:40.578Z,95782.84
2023-02-27T23:29:10.861Z,95791.41
2023-02-27T23:31:42.391Z,95782.31
2023-02-27T23:34:13.146Z,95785.72
2023-02-27T23:36:43.341Z,95780.81
2023-02-27T23:39:16.251Z,95783.56
2023-02-27T23:41:46.202Z,95773.50
2023-02-27T23:44:16.088Z,95773.50
2023-02-27T23:46:45.934Z,95771.19
2023-02-27T23:49:16.143Z,95776.94
2023-02-27T23:51:46.462Z,95776.41
2023-02-27T23:54:18.903Z,95772.00
2023-02-27T23:56:50.357Z,95768.81
2023-02-27T23:59:21.311Z,95763.44
